sensor_id;sensor_type;location;lat;lon;timestamp;pressure;altitude;pressure_sealevel;temperature;humidity
13974;BME280;7060;43.770;4.008;2023-02-13T00:01:24;102971.00;;;-1.36;66.15
13974;BME280;7060;43.770;4.008;2023-02-13T00:03:53;102970.16;;;-1.41;65.93
13974;BME280;7060;43.770;4.008;2023-02-13T00:06:23;102972.81;;;-1.44;65.83
13974;BME280;7060;43.770;4.008;2023-02-13T00:08:51;102963.28;;;-1.54;66.39
13974;BME280;7060;43.770;4.008;2023-02-13T00:11:20;102965.94;;;-1.56;66.70
13974;BME280;7060;43.770;4.008;2023-02-13T00:13:48;102970.34;;;-1.59;66.31
13974;BME280;7060;43.770;4.008;2023-02-13T00:16:17;102967.72;;;-1.59;66.74
13974;BME280;7060;43.770;4.008;2023-02-13T00:18:46;102970.31;;;-1.55;66.64
13974;BME280;7060;43.770;4.008;2023-02-13T00:21:14;102966.78;;;-1.54;66.46
13974;BME280;7060;43.770;4.008;2023-02-13T00:23:45;102961.50;;;-1.51;66.44
13974;BME280;7060;43.770;4.008;2023-02-13T00:26:15;102956.41;;;-1.63;66.03
13974;BME280;7060;43.770;4.008;2023-02-13T00:28:45;102956.41;;;-1.63;66.30
13974;BME280;7060;43.770;4.008;2023-02-13T00:31:15;102919.81;;;-1.81;66.46
13974;BME280;7060;43.770;4.008;2023-02-13T00:33:44;102954.66;;;-1.64;66.46
13974;BME280;7060;43.770;4.008;2023-02-13T00:36:15;102959.81;;;-1.55;66.42
13974;BME280;7060;43.770;4.008;2023-02-13T00:38:45;102962.47;;;-1.56;66.00
13974;BME280;7060;43.770;4.008;2023-02-13T00:41:14;102958.13;;;-1.62;66.39
13974;BME280;7060;43.770;4.008;2023-02-13T00:43:44;102951.97;;;-1.58;66.74
13974;BME280;7060;43.770;4.008;2023-02-13T00:46:13;102945.06;;;-1.66;66.77
13974;BME280;7060;43.770;4.008;2023-02-13T00:48:42;102952.00;;;-1.62;66.22
13974;BME280;7060;43.770;4.008;2023-02-13T00:51:11;102953.78;;;-1.64;66.76
13974;BME280;7060;43.770;4.008;2023-02-13T00:53:40;102959.03;;;-1.66;66.72
13974;BME280;7060;43.770;4.008;2023-02-13T00:56:09;102958.22;;;-1.71;66.32
13974;BME280;7060;43.770;4.008;2023-02-13T00:58:38;102958.28;;;-1.82;67.08
13974;BME280;7060;43.770;4.008;2023-02-13T01:01:06;102957.47;;;-1.85;67.13
13974;BME280;7060;43.770;4.008;2023-02-13T01:03:35;102954.88;;;-1.90;67.38
13974;BME280;7060;43.770;4.008;2023-02-13T01:06:04;102956.63;;;-1.90;67.02
13974;BME280;7060;43.770;4.008;2023-02-13T01:08:33;102961.88;;;-1.90;67.42
13974;BME280;7060;43.770;4.008;2023-02-13T01:11:01;102964.50;;;-1.90;67.52
13974;BME280;7060;43.770;4.008;2023-02-13T01:13:31;102967.97;;;-1.90;67.76
13974;BME280;7060;43.770;4.008;2023-02-13T01:16:00;102967.09;;;-1.87;67.51
13974;BME280;7060;43.770;4.008;2023-02-13T01:18:28;102974.09;;;-1.89;66.79
13974;BME280;7060;43.770;4.008;2023-02-13T01:20:59;102787.09;;;-2.92;66.65
13974;BME280;7060;43.770;4.008;2023-02-13T01:23:31;102973.22;;;-1.87;66.47
13974;BME280;7060;43.770;4.008;2023-02-13T01:26:00;102972.34;;;-1.90;66.95
13974;BME280;7060;43.770;4.008;2023-02-13T01:28:32;102975.00;;;-1.93;66.74
13974;BME280;7060;43.770;4.008;2023-02-13T01:31:00;102974.19;;;-2.02;66.65
13974;BME280;7060;43.770;4.008;2023-02-13T01:33:29;102972.44;;;-2.06;67.27
13974;BME280;7060;43.770;4.008;2023-02-13T01:35:58;102975.09;;;-2.07;67.24
13974;BME280;7060;43.770;4.008;2023-02-13T01:38:26;102974.25;;;-2.11;67.09
13974;BME280;7060;43.770;4.008;2023-02-13T01:40:56;102976.84;;;-2.09;67.25
13974;BME280;7060;43.770;4.008;2023-02-13T01:43:44;102984.75;;;-2.11;66.83
13974;BME280;7060;43.770;4.008;2023-02-13T01:46:15;102942.06;;;-2.36;67.43
13974;BME280;7060;43.770;4.008;2023-02-13T01:48:46;102979.53;;;-2.17;67.45
13974;BME280;7060;43.770;4.008;2023-02-13T01:51:19;102979.53;;;-2.17;67.75
13974;BME280;7060;43.770;4.008;2023-02-13T01:53:56;102984.78;;;-2.20;67.68
13974;BME280;7060;43.770;4.008;2023-02-13T01:56:29;102961.22;;;-2.24;67.89
13974;BME280;7060;43.770;4.008;2023-02-13T01:59:06;102940.31;;;-2.33;66.76
13974;BME280;7060;43.770;4.008;2023-02-13T02:01:35;102982.94;;;-2.06;66.45
13974;BME280;7060;43.770;4.008;2023-02-13T02:04:07;102982.06;;;-2.06;66.31
13974;BME280;7060;43.770;4.008;2023-02-13T02:06:41;102977.69;;;-2.04;66.28
13974;BME280;7060;43.770;4.008;2023-02-13T02:09:22;102985.56;;;-2.07;66.31
13974;BME280;7060;43.770;4.008;2023-02-13T02:11:58;102941.25;;;-2.39;66.05
13974;BME280;7060;43.770;4.008;2023-02-13T02:14:29;102982.16;;;-2.18;66.48
13974;BME280;7060;43.770;4.008;2023-02-13T02:16:58;102986.53;;;-2.17;65.98
13974;BME280;7060;43.770;4.008;2023-02-13T02:19:34;102958.63;;;-2.24;65.88
13974;BME280;7060;43.770;4.008;2023-02-13T02:25:36;102987.41;;;-2.18;65.47
13974;BME280;7060;43.770;4.008;2023-02-13T02:28:36;102983.03;;;-2.16;65.67
13974;BME280;7060;43.770;4.008;2023-02-13T02:34:31;102989.22;;;-2.31;65.53
13974;BME280;7060;43.770;4.008;2023-02-13T02:37:14;102990.06;;;-2.27;65.62
13974;BME280;7060;43.770;4.008;2023-02-13T02:39:51;102975.25;;;-2.33;65.46
13974;BME280;7060;43.770;4.008;2023-02-13T02:42:30;102984.03;;;-2.37;65.70
13974;BME280;7060;43.770;4.008;2023-02-13T02:45:08;102980.56;;;-2.45;65.94
13974;BME280;7060;43.770;4.008;2023-02-13T02:47:46;102985.84;;;-2.50;66.02
13974;BME280;7060;43.770;4.008;2023-02-13T02:50:38;102973.69;;;-2.66;66.68
13974;BME280;7060;43.770;4.008;2023-02-13T02:53:21;102978.00;;;-2.54;66.52
13974;BME280;7060;43.770;4.008;2023-02-13T02:55:57;102982.38;;;-2.58;66.96
13974;BME280;7060;43.770;4.008;2023-02-13T02:58:36;102980.63;;;-2.56;66.88
13974;BME280;7060;43.770;4.008;2023-02-13T03:01:28;102980.63;;;-2.62;67.18
13974;BME280;7060;43.770;4.008;2023-02-13T03:04:18;102939.75;;;-2.87;67.26
13974;BME280;7060;43.770;4.008;2023-02-13T03:07:08;102978.06;;;-2.66;67.39
13974;BME280;7060;43.770;4.008;2023-02-13T03:09:40;102978.03;;;-2.63;67.01
13974;BME280;7060;43.770;4.008;2023-02-13T03:12:38;102936.25;;;-2.88;66.99
13974;BME280;7060;43.770;4.008;2023-02-13T03:15:26;102977.16;;;-2.64;66.90
13974;BME280;7060;43.770;4.008;2023-02-13T03:17:56;102978.91;;;-2.63;66.68
13974;BME280;7060;43.770;4.008;2023-02-13T03:20:45;102977.16;;;-2.64;67.00
13974;BME280;7060;43.770;4.008;2023-02-13T03:23:45;102981.56;;;-2.64;66.54
13974;BME280;7060;43.770;4.008;2023-02-13T03:26:38;102984.13;;;-2.61;66.56
13974;BME280;7060;43.770;4.008;2023-02-13T03:29:30;102977.13;;;-2.59;66.14
13974;BME280;7060;43.770;4.008;2023-02-13T03:32:26;102986.75;;;-2.61;66.31
13974;BME280;7060;43.770;4.008;2023-02-13T03:35:06;102986.78;;;-2.64;66.06
13974;BME280;7060;43.770;4.008;2023-02-13T03:38:00;102982.44;;;-2.73;66.42
13974;BME280;7060;43.770;4.008;2023-02-13T03:40:36;102981.56;;;-2.71;66.04
13974;BME280;7060;43.770;4.008;2023-02-13T03:43:31;102979.84;;;-2.82;66.44
13974;BME280;7060;43.770;4.008;2023-02-13T03:46:03;102994.69;;;-2.84;66.66
13974;BME280;7060;43.770;4.008;2023-02-13T03:48:34;102988.59;;;-2.85;66.88
13974;BME280;7060;43.770;4.008;2023-02-13T03:51:26;102981.63;;;-2.86;66.72
13974;BME280;7060;43.770;4.008;2023-02-13T03:53:59;102993.81;;;-2.79;66.58
13974;BME280;7060;43.770;4.008;2023-02-13T03:56:32;102991.22;;;-2.83;66.67
13974;BME280;7060;43.770;4.008;2023-02-13T03:59:23;102992.97;;;-2.87;66.47
13974;BME280;7060;43.770;4.008;2023-02-13T04:02:00;102991.22;;;-2.83;66.61
13974;BME280;7060;43.770;4.008;2023-02-13T04:04:39;102992.94;;;-2.84;66.20
13974;BME280;7060;43.770;4.008;2023-02-13T04:07:12;103000.81;;;-2.88;66.65
13974;BME280;7060;43.770;4.008;2023-02-13T04:09:57;103002.56;;;-2.90;66.68
13974;BME280;7060;43.770;4.008;2023-02-13T04:12:36;103003.44;;;-2.90;66.56
13974;BME280;7060;43.770;4.008;2023-02-13T04:15:10;103006.09;;;-2.94;66.75
13974;BME280;7060;43.770;4.008;2023-02-13T04:17:44;103008.72;;;-3.00;66.79
13974;BME280;7060;43.770;4.008;2023-02-13T04:20:14;103006.97;;;-3.06;66.91
13974;BME280;7060;43.770;4.008;2023-02-13T04:22:43;103009.59;;;-3.12;66.94
13974;BME280;7060;43.770;4.008;2023-02-13T04:25:13;103003.50;;;-3.17;67.08
13974;BME280;7060;43.770;4.008;2023-02-13T04:27:44;103005.28;;;-3.22;67.33
13974;BME280;7060;43.770;4.008;2023-02-13T04:30:13;103009.66;;;-3.27;67.41
13974;BME280;7060;43.770;4.008;2023-02-13T04:32:41;103020.97;;;-3.27;67.64
13974;BME280;7060;43.770;4.008;2023-02-13T04:35:10;103022.72;;;-3.21;67.70
13974;BME280;7060;43.770;4.008;2023-02-13T04:37:39;103020.97;;;-3.21;67.46
13974;BME280;7060;43.770;4.008;2023-02-13T04:40:09;103027.94;;;-3.18;67.25
13974;BME280;7060;43.770;4.008;2023-02-13T04:42:37;103031.41;;;-3.18;67.40
13974;BME280;7060;43.770;4.008;2023-02-13T04:45:08;103036.69;;;-3.19;67.35
13974;BME280;7060;43.770;4.008;2023-02-13T04:47:37;103038.38;;;-3.18;67.43
13974;BME280;7060;43.770;4.008;2023-02-13T04:50:06;103039.25;;;-3.16;67.10
13974;BME280;7060;43.770;4.008;2023-02-13T04:52:35;103041.88;;;-3.12;66.83
13974;BME280;7060;43.770;4.008;2023-02-13T04:55:04;103036.66;;;-3.15;66.69
13974;BME280;7060;43.770;4.008;2023-02-13T04:57:32;103049.75;;;-3.19;66.81
13974;BME280;7060;43.770;4.008;2023-02-13T05:00:01;103036.56;;;-2.80;66.59
13974;BME280;7060;43.770;4.008;2023-02-13T05:02:31;103043.63;;;-2.97;66.51
13974;BME280;7060;43.770;4.008;2023-02-13T05:05:00;103042.75;;;-3.05;66.72
13974;BME280;7060;43.770;4.008;2023-02-13T05:07:28;103041.88;;;-3.09;66.93
13974;BME280;7060;43.770;4.008;2023-02-13T05:09:56;103034.91;;;-3.11;66.69
13974;BME280;7060;43.770;4.008;2023-02-13T05:12:25;103043.63;;;-3.00;66.41
13974;BME280;7060;43.770;4.008;2023-02-13T05:14:53;103047.97;;;-2.99;66.28
13974;BME280;7060;43.770;4.008;2023-02-13T05:17:22;103038.38;;;-3.00;66.23
13974;BME280;7060;43.770;4.008;2023-02-13T05:19:55;103028.78;;;-3.10;65.97
13974;BME280;7060;43.770;4.008;2023-02-13T05:22:25;103052.34;;;-3.07;66.28
13974;BME280;7060;43.770;4.008;2023-02-13T05:25:11;103046.25;;;-3.12;66.39
13974;BME280;7060;43.770;4.008;2023-02-13T05:27:39;103051.47;;;-3.17;66.39
13974;BME280;7060;43.770;4.008;2023-02-13T05:30:08;103053.25;;;-3.20;66.53
13974;BME280;7060;43.770;4.008;2023-02-13T05:32:37;103048.88;;;-3.26;66.72
13974;BME280;7060;43.770;4.008;2023-02-13T05:35:08;103050.59;;;-3.16;66.78
13974;BME280;7060;43.770;4.008;2023-02-13T05:37:36;103052.38;;;-3.21;66.76
13974;BME280;7060;43.770;4.008;2023-02-13T05:40:06;103055.00;;;-3.19;66.66
13974;BME280;7060;43.770;4.008;2023-02-13T05:42:34;103052.38;;;-3.28;66.56
13974;BME280;7060;43.770;4.008;2023-02-13T05:45:03;103056.72;;;-3.33;66.76
13974;BME280;7060;43.770;4.008;2023-02-13T05:47:32;103061.09;;;-3.42;67.11
13974;BME280;7060;43.770;4.008;2023-02-13T05:50:00;103054.97;;;-3.41;67.04
13974;BME280;7060;43.770;4.008;2023-02-13T05:52:30;103052.38;;;-3.34;66.81
13974;BME280;7060;43.770;4.008;2023-02-13T05:54:59;103050.63;;;-3.37;66.65
13974;BME280;7060;43.770;4.008;2023-02-13T05:57:27;103048.00;;;-3.42;66.91
13974;BME280;7060;43.770;4.008;2023-02-13T05:59:56;103054.13;;;-3.47;66.99
13974;BME280;7060;43.770;4.008;2023-02-13T06:02:25;103050.66;;;-3.51;67.09
13974;BME280;7060;43.770;4.008;2023-02-13T06:04:54;103061.09;;;-3.49;67.47
13974;BME280;7060;43.770;4.008;2023-02-13T06:07:22;103068.06;;;-3.41;67.23
13974;BME280;7060;43.770;4.008;2023-02-13T06:09:52;103068.06;;;-3.33;67.18
13974;BME280;7060;43.770;4.008;2023-02-13T06:12:20;103068.06;;;-3.33;66.87
13974;BME280;7060;43.770;4.008;2023-02-13T06:14:49;103067.19;;;-3.33;66.94
13974;BME280;7060;43.770;4.008;2023-02-13T06:17:17;103060.22;;;-3.39;66.77
13974;BME280;7060;43.770;4.008;2023-02-13T06:19:45;103063.69;;;-3.39;66.79
13974;BME280;7060;43.770;4.008;2023-02-13T06:22:14;103068.94;;;-3.35;66.36
13974;BME280;7060;43.770;4.008;2023-02-13T06:24:42;103057.59;;;-3.41;66.41
13974;BME280;7060;43.770;4.008;2023-02-13T06:27:12;103059.34;;;-3.50;66.47
13974;BME280;7060;43.770;4.008;2023-02-13T06:29:40;103065.44;;;-3.57;66.82
13974;BME280;7060;43.770;4.008;2023-02-13T06:32:09;103065.47;;;-3.53;66.82
13974;BME280;7060;43.770;4.008;2023-02-13T06:34:37;103068.94;;;-3.57;66.77
13974;BME280;7060;43.770;4.008;2023-02-13T06:37:06;103068.91;;;-3.64;66.86
13974;BME280;7060;43.770;4.008;2023-02-13T06:39:34;103069.78;;;-3.65;67.22
13974;BME280;7060;43.770;4.008;2023-02-13T06:42:03;103074.13;;;-3.67;67.30
13974;BME280;7060;43.770;4.008;2023-02-13T06:44:32;103075.03;;;-3.65;67.31
13974;BME280;7060;43.770;4.008;2023-02-13T06:47:01;103081.13;;;-3.65;66.96
13974;BME280;7060;43.770;4.008;2023-02-13T06:49:30;103084.63;;;-3.63;67.21
13974;BME280;7060;43.770;4.008;2023-02-13T06:51:58;103087.22;;;-3.64;67.27
13974;BME280;7060;43.770;4.008;2023-02-13T06:54:26;103093.31;;;-3.67;67.42
13974;BME280;7060;43.770;4.008;2023-02-13T06:57:13;103098.56;;;-3.64;67.58
13974;BME280;7060;43.770;4.008;2023-02-13T06:59:43;103095.06;;;-3.63;67.39
13974;BME280;7060;43.770;4.008;2023-02-13T07:02:12;103102.03;;;-3.60;66.81
13974;BME280;7060;43.770;4.008;2023-02-13T07:04:40;103108.13;;;-3.64;67.75
13974;BME280;7060;43.770;4.008;2023-02-13T07:07:08;103112.50;;;-3.65;67.72
13974;BME280;7060;43.770;4.008;2023-02-13T07:09:37;103120.34;;;-3.63;67.79
13974;BME280;7060;43.770;4.008;2023-02-13T07:12:07;103122.09;;;-3.56;67.86
13974;BME280;7060;43.770;4.008;2023-02-13T07:14:35;103118.63;;;-3.54;67.81
13974;BME280;7060;43.770;4.008;2023-02-13T07:17:05;103132.59;;;-3.47;67.86
13974;BME280;7060;43.770;4.008;2023-02-13T07:19:33;103125.59;;;-3.45;67.73
13974;BME280;7060;43.770;4.008;2023-02-13T07:22:02;103130.81;;;-3.42;68.00
13974;BME280;7060;43.770;4.008;2023-02-13T07:24:30;103134.31;;;-3.37;68.16
13974;BME280;7060;43.770;4.008;2023-02-13T07:27:01;103133.44;;;-3.34;67.96
13974;BME280;7060;43.770;4.008;2023-02-13T07:29:29;103135.22;;;-3.26;68.09
13974;BME280;7060;43.770;4.008;2023-02-13T07:31:58;103144.78;;;-3.17;68.02
13974;BME280;7060;43.770;4.008;2023-02-13T07:34:29;103143.94;;;-3.07;68.16
13974;BME280;7060;43.770;4.008;2023-02-13T07:36:58;103145.69;;;-3.00;68.05
13974;BME280;7060;43.770;4.008;2023-02-13T07:39:26;103143.06;;;-2.98;68.01
13974;BME280;7060;43.770;4.008;2023-02-13T07:41:55;103145.66;;;-2.85;68.39
13974;BME280;7060;43.770;4.008;2023-02-13T07:44:25;103149.16;;;-2.74;68.42
13974;BME280;7060;43.770;4.008;2023-02-13T07:46:54;103160.44;;;-2.53;68.59
13974;BME280;7060;43.770;4.008;2023-02-13T07:49:22;103156.00;;;-2.18;68.51
13974;BME280;7060;43.770;4.008;2023-02-13T07:51:52;103163.72;;;-1.83;68.71
13974;BME280;7060;43.770;4.008;2023-02-13T07:54:21;103153.84;;;-1.43;68.10
13974;BME280;7060;43.770;4.008;2023-02-13T07:56:50;103164.06;;;-1.03;67.64
13974;BME280;7060;43.770;4.008;2023-02-13T07:59:18;103156.63;;;-0.55;67.13
13974;BME280;7060;43.770;4.008;2023-02-13T08:01:46;103160.53;;;-0.15;66.48
13974;BME280;7060;43.770;4.008;2023-02-13T08:04:15;103158.25;;;0.28;66.31
13974;BME280;7060;43.770;4.008;2023-02-13T08:06:44;103158.44;;;0.73;65.18
13974;BME280;7060;43.770;4.008;2023-02-13T08:09:18;103168.31;;;1.16;64.52
13974;BME280;7060;43.770;4.008;2023-02-13T08:12:07;103010.88;;;0.81;64.78
13974;BME280;7060;43.770;4.008;2023-02-13T08:14:37;103168.09;;;2.17;62.94
13974;BME280;7060;43.770;4.008;2023-02-13T08:17:05;103168.44;;;2.42;63.17
13974;BME280;7060;43.770;4.008;2023-02-13T08:19:34;103169.63;;;2.66;62.89
13974;BME280;7060;43.770;4.008;2023-02-13T08:22:02;103169.06;;;2.90;62.08
13974;BME280;7060;43.770;4.008;2023-02-13T08:24:33;103134.53;;;2.98;61.83
13974;BME280;7060;43.770;4.008;2023-02-13T08:27:01;103170.53;;;3.37;60.90
13974;BME280;7060;43.770;4.008;2023-02-13T08:29:30;103174.44;;;3.55;60.25
13974;BME280;7060;43.770;4.008;2023-02-13T08:31:58;103169.06;;;3.58;60.62
13974;BME280;7060;43.770;4.008;2023-02-13T08:34:28;103170.38;;;3.74;60.49
13974;BME280;7060;43.770;4.008;2023-02-13T08:36:57;103172.03;;;3.79;59.70
13974;BME280;7060;43.770;4.008;2023-02-13T08:39:26;103159.53;;;3.84;59.10
13974;BME280;7060;43.770;4.008;2023-02-13T08:41:56;103168.03;;;3.95;59.47
13974;BME280;7060;43.770;4.008;2023-02-13T08:44:25;103160.88;;;3.98;59.54
13974;BME280;7060;43.770;4.008;2023-02-13T08:46:54;103172.03;;;4.09;58.59
13974;BME280;7060;43.770;4.008;2023-02-13T08:49:22;103167.47;;;4.15;58.99
13974;BME280;7060;43.770;4.008;2023-02-13T08:51:51;103171.94;;;4.13;59.33
13974;BME280;7060;43.770;4.008;2023-02-13T08:54:19;103169.16;;;4.17;58.48
13974;BME280;7060;43.770;4.008;2023-02-13T08:56:47;103170.59;;;4.27;59.12
13974;BME280;7060;43.770;4.008;2023-02-13T08:59:17;103168.88;;;4.26;58.64
13974;BME280;7060;43.770;4.008;2023-02-13T09:01:46;103171.16;;;4.38;58.83
13974;BME280;7060;43.770;4.008;2023-02-13T09:04:14;103169.84;;;4.52;59.26
13974;BME280;7060;43.770;4.008;2023-02-13T09:06:44;103172.91;;;4.67;59.19
13974;BME280;7060;43.770;4.008;2023-02-13T09:09:12;103174.28;;;4.79;58.65
13974;BME280;7060;43.770;4.008;2023-02-13T09:11:42;103181.88;;;4.91;58.77
13974;BME280;7060;43.770;4.008;2023-02-13T09:14:10;103179.69;;;5.04;58.63
13974;BME280;7060;43.770;4.008;2023-02-13T09:16:41;103173.13;;;5.16;58.93
13974;BME280;7060;43.770;4.008;2023-02-13T09:19:09;103171.94;;;5.24;59.03
13974;BME280;7060;43.770;4.008;2023-02-13T09:21:38;103172.38;;;5.37;58.58
13974;BME280;7060;43.770;4.008;2023-02-13T09:24:07;103170.41;;;5.43;57.58
13974;BME280;7060;43.770;4.008;2023-02-13T09:26:35;103174.53;;;5.52;56.74
13974;BME280;7060;43.770;4.008;2023-02-13T09:29:04;103166.25;;;5.60;55.75
13974;BME280;7060;43.770;4.008;2023-02-13T09:31:32;103161.72;;;5.63;55.13
13974;BME280;7060;43.770;4.008;2023-02-13T09:34:02;103173.81;;;5.72;55.80
13974;BME280;7060;43.770;4.008;2023-02-13T09:36:32;103166.44;;;5.80;55.13
13974;BME280;7060;43.770;4.008;2023-02-13T09:39:02;103159.09;;;5.87;55.10
13974;BME280;7060;43.770;4.008;2023-02-13T09:41:34;103125.97;;;5.73;54.29
13974;BME280;7060;43.770;4.008;2023-02-13T09:44:05;103124.84;;;5.81;54.35
13974;BME280;7060;43.770;4.008;2023-02-13T09:46:39;103163.38;;;6.14;53.28
13974;BME280;7060;43.770;4.008;2023-02-13T09:49:14;103118.75;;;6.00;53.59
13974;BME280;7060;43.770;4.008;2023-02-13T09:51:47;103027.56;;;5.56;53.25
13974;BME280;7060;43.770;4.008;2023-02-13T09:54:20;103157.88;;;6.42;52.98
13974;BME280;7060;43.770;4.008;2023-02-13T09:56:51;102971.88;;;5.31;52.07
13974;BME280;7060;43.770;4.008;2023-02-13T09:59:39;103038.28;;;5.98;52.05
13974;BME280;7060;43.770;4.008;2023-02-13T10:02:41;102915.25;;;5.32;52.19
13974;BME280;7060;43.770;4.008;2023-02-13T10:05:39;102967.75;;;5.69;52.05
13974;BME280;7060;43.770;4.008;2023-02-13T10:08:20;102929.22;;;5.59;51.23
13974;BME280;7060;43.770;4.008;2023-02-13T10:11:01;103114.00;;;6.75;50.88
13974;BME280;7060;43.770;4.008;2023-02-13T10:13:49;102744.22;;;4.75;50.70
13974;BME280;7060;43.770;4.008;2023-02-13T10:16:22;103089.63;;;6.86;50.19
13974;BME280;7060;43.770;4.008;2023-02-13T10:18:56;102941.25;;;6.11;49.63
13974;BME280;7060;43.770;4.008;2023-02-13T10:21:32;103152.00;;;7.41;49.52
13974;BME280;7060;43.770;4.008;2023-02-13T10:24:06;103156.84;;;7.52;48.71
13974;BME280;7060;43.770;4.008;2023-02-13T10:26:40;103147.81;;;7.56;48.45
13974;BME280;7060;43.770;4.008;2023-02-13T10:29:16;102939.34;;;6.37;48.66
13974;BME280;7060;43.770;4.008;2023-02-13T10:32:04;102949.31;;;6.52;48.38
13974;BME280;7060;43.770;4.008;2023-02-13T10:34:37;102941.75;;;6.63;47.30
13974;BME280;7060;43.770;4.008;2023-02-13T10:37:14;103072.50;;;7.34;47.45
13974;BME280;7060;43.770;4.008;2023-02-13T10:39:45;102949.63;;;6.85;47.43
13974;BME280;7060;43.770;4.008;2023-02-13T10:42:24;102944.97;;;6.90;47.54
13974;BME280;7060;43.770;4.008;2023-02-13T10:45:02;102943.69;;;6.99;47.68
13974;BME280;7060;43.770;4.008;2023-02-13T10:47:44;102943.16;;;7.11;47.04
13974;BME280;7060;43.770;4.008;2023-02-13T10:50:23;103091.09;;;8.12;46.99
13974;BME280;7060;43.770;4.008;2023-02-13T10:53:10;103124.34;;;8.41;46.34
13974;BME280;7060;43.770;4.008;2023-02-13T10:55:59;102899.44;;;7.17;46.33
13974;BME280;7060;43.770;4.008;2023-02-13T10:58:40;102908.31;;;7.36;46.74
13974;BME280;7060;43.770;4.008;2023-02-13T11:01:18;102869.78;;;7.24;46.05
13974;BME280;7060;43.770;4.008;2023-02-13T11:04:03;102923.63;;;7.68;45.78
13974;BME280;7060;43.770;4.008;2023-02-13T11:06:34;102914.38;;;7.75;45.59
13974;BME280;7060;43.770;4.008;2023-02-13T11:09:05;103121.88;;;9.08;45.75
13974;BME280;7060;43.770;4.008;2023-02-13T11:11:37;103130.94;;;9.23;46.67
13974;BME280;7060;43.770;4.008;2023-02-13T11:14:12;103127.78;;;9.32;45.35
13974;BME280;7060;43.770;4.008;2023-02-13T11:16:53;103125.69;;;9.39;46.20
13974;BME280;7060;43.770;4.008;2023-02-13T11:19:30;103087.91;;;9.29;45.65
13974;BME280;7060;43.770;4.008;2023-02-13T11:22:03;103107.03;;;9.55;45.62
13974;BME280;7060;43.770;4.008;2023-02-13T11:24:34;103120.88;;;9.78;45.93
13974;BME280;7060;43.770;4.008;2023-02-13T11:27:06;103111.78;;;9.98;45.88
13974;BME280;7060;43.770;4.008;2023-02-13T11:29:51;103070.72;;;9.99;45.70
13974;BME280;7060;43.770;4.008;2023-02-13T11:32:21;103111.63;;;10.33;44.99
13974;BME280;7060;43.770;4.008;2023-02-13T11:34:51;103093.50;;;10.38;44.79
13974;BME280;7060;43.770;4.008;2023-02-13T11:37:25;103100.91;;;10.64;44.32
13974;BME280;7060;43.770;4.008;2023-02-13T11:39:58;103092.72;;;10.67;43.24
13974;BME280;7060;43.770;4.008;2023-02-13T11:42:29;103038.34;;;10.51;43.18
13974;BME280;7060;43.770;4.008;2023-02-13T11:45:00;103078.53;;;10.81;43.00
13974;BME280;7060;43.770;4.008;2023-02-13T11:47:37;103001.38;;;10.43;41.90
13974;BME280;7060;43.770;4.008;2023-02-13T11:50:19;102876.75;;;9.81;41.97
13974;BME280;7060;43.770;4.008;2023-02-13T11:52:54;103033.91;;;10.81;42.59
13974;BME280;7060;43.770;4.008;2023-02-13T11:55:28;103061.88;;;11.06;42.80
13974;BME280;7060;43.770;4.008;2023-02-13T11:57:59;102990.91;;;10.84;43.18
13974;BME280;7060;43.770;4.008;2023-02-13T12:00:33;103084.81;;;11.54;43.09
13974;BME280;7060;43.770;4.008;2023-02-13T12:03:25;103081.56;;;11.63;42.19
13974;BME280;7060;43.770;4.008;2023-02-13T12:06:02;103069.97;;;11.63;41.26
13974;BME280;7060;43.770;4.008;2023-02-13T12:08:33;103075.63;;;11.72;41.77
13974;BME280;7060;43.770;4.008;2023-02-13T12:11:09;103051.59;;;11.71;41.37
13974;BME280;7060;43.770;4.008;2023-02-13T12:13:42;103043.66;;;11.69;40.85
13974;BME280;7060;43.770;4.008;2023-02-13T12:16:15;103065.25;;;11.95;41.00
13974;BME280;7060;43.770;4.008;2023-02-13T12:18:51;103007.00;;;11.70;40.28
13974;BME280;7060;43.770;4.008;2023-02-13T12:21:34;103057.88;;;12.12;39.41
13974;BME280;7060;43.770;4.008;2023-02-13T12:24:13;103056.31;;;12.23;39.20
13974;BME280;7060;43.770;4.008;2023-02-13T12:26:52;103001.41;;;12.01;39.12
13974;BME280;7060;43.770;4.008;2023-02-13T12:29:43;103003.69;;;12.07;38.95
13974;BME280;7060;43.770;4.008;2023-02-13T12:32:18;102970.00;;;11.89;38.74
13974;BME280;7060;43.770;4.008;2023-02-13T12:35:26;103043.00;;;12.48;39.28
13974;BME280;7060;43.770;4.008;2023-02-13T12:38:03;103046.16;;;12.54;38.90
13974;BME280;7060;43.770;4.008;2023-02-13T12:40:55;103002.22;;;12.43;38.42
13974;BME280;7060;43.770;4.008;2023-02-13T12:43:42;103011.59;;;12.50;39.02
13974;BME280;7060;43.770;4.008;2023-02-13T12:46:20;103028.06;;;12.71;38.26
13974;BME280;7060;43.770;4.008;2023-02-13T12:48:59;102962.31;;;12.38;36.85
13974;BME280;7060;43.770;4.008;2023-02-13T12:51:40;102814.06;;;11.57;36.92
13974;BME280;7060;43.770;4.008;2023-02-13T12:54:25;102830.91;;;11.72;37.33
13974;BME280;7060;43.770;4.008;2023-02-13T12:57:14;102798.84;;;11.58;37.45
13974;BME280;7060;43.770;4.008;2023-02-13T12:59:58;102993.41;;;12.80;37.14
13974;BME280;7060;43.770;4.008;2023-02-13T13:03:05;103005.66;;;12.97;36.36
13974;BME280;7060;43.770;4.008;2023-02-13T13:05:55;102932.94;;;12.62;36.30
13974;BME280;7060;43.770;4.008;2023-02-13T13:08:56;102987.50;;;13.01;36.14
13974;BME280;7060;43.770;4.008;2023-02-13T13:11:45;102825.91;;;12.19;37.25
13974;BME280;7060;43.770;4.008;2023-02-13T13:14:22;102786.81;;;12.03;37.69
13974;BME280;7060;43.770;4.008;2023-02-13T13:17:02;102888.91;;;12.77;37.64
13974;BME280;7060;43.770;4.008;2023-02-13T13:19:39;102787.72;;;12.29;37.64
13974;BME280;7060;43.770;4.008;2023-02-13T13:22:17;102778.41;;;12.34;36.33
13974;BME280;7060;43.770;4.008;2023-02-13T13:24:55;102990.19;;;13.51;36.18
13974;BME280;7060;43.770;4.008;2023-02-13T13:27:30;102906.41;;;13.08;35.82
13974;BME280;7060;43.770;4.008;2023-02-13T13:30:02;102982.13;;;13.51;35.12
13974;BME280;7060;43.770;4.008;2023-02-13T13:32:33;102956.31;;;13.36;35.87
13974;BME280;7060;43.770;4.008;2023-02-13T13:35:04;102889.44;;;12.95;35.30
13974;BME280;7060;43.770;4.008;2023-02-13T13:37:38;102897.75;;;12.92;34.86
13974;BME280;7060;43.770;4.008;2023-02-13T13:40:24;102979.75;;;13.34;33.98
13974;BME280;7060;43.770;4.008;2023-02-13T13:43:00;102850.19;;;12.56;33.96
13974;BME280;7060;43.770;4.008;2023-02-13T13:45:37;102921.03;;;12.92;34.53